createdAt,value
2022-08-12T00:02:02.852Z,18.94
2022-08-12T00:05:40.011Z,18.83
2022-08-12T00:08:49.840Z,18.70
2022-08-12T00:11:36.712Z,18.66
2022-08-12T00:14:23.970Z,18.60
2022-08-12T00:17:11.267Z,18.55
2022-08-12T00:19:57.961Z,18.49
2022-08-12T00:22:53.099Z,18.44
2022-08-12T00:26:21.298Z,18.39
2022-08-12T00:29:04.020Z,18.34
2022-08-12T00:31:51.238Z,18.29
2022-08-12T00:34:38.499Z,18.24
2022-08-12T00:37:24.954Z,18.21
2022-08-12T00:40:12.306Z,18.18
2022-08-12T00:42:42.110Z,18.15
2022-08-12T00:45:11.546Z,18.13
2022-08-12T00:47:40.574Z,18.11
2022-08-12T00:50:17.435Z,18.10
2022-08-12T00:52:46.759Z,18.08
2022-08-12T00:55:16.462Z,18.08
2022-08-12T00:57:47.989Z,18.06
2022-08-12T01:00:20.798Z,18.03
2022-08-12T01:02:51.644Z,18.00
2022-08-12T01:05:46.927Z,17.98
2022-08-12T01:08:45.189Z,17.95
2022-08-12T01:11:32.091Z,17.91
2022-08-12T01:14:02.227Z,17.87
2022-08-12T01:16:31.337Z,17.85
2022-08-12T01:19:01.136Z,17.83
2022-08-12T01:21:56.547Z,17.81
2022-08-12T01:24:51.478Z,17.77
2022-08-12T01:27:21.179Z,17.74
2022-08-12T01:29:51.803Z,17.70
2022-08-12T01:32:23.252Z,17.65
2022-08-12T01:35:01.112Z,17.62
2022-08-12T01:37:33.350Z,17.57
2022-08-12T01:40:35.492Z,17.53
2022-08-12T01:42:54.660Z,17.50
2022-08-12T01:45:24.028Z,17.48
2022-08-12T01:48:05.267Z,17.45
2022-08-12T01:50:46.849Z,17.40
2022-08-12T01:53:20.329Z,17.37
2022-08-12T01:55:49.971Z,17.33
2022-08-12T01:58:49.919Z,17.30
2022-08-12T02:01:23.690Z,17.25
2022-08-12T02:04:24.553Z,17.21
2022-08-12T02:07:20.752Z,17.18
2022-08-12T02:10:50.133Z,17.15
2022-08-12T02:13:43.812Z,17.10
2022-08-12T02:16:21.858Z,17.06
2022-08-12T02:19:03.132Z,17.01
2022-08-12T02:21:47.423Z,16.99
2022-08-12T02:24:20.087Z,16.97
2022-08-12T02:26:49.943Z,16.95
2022-08-12T02:29:20.086Z,16.94
2022-08-12T02:31:49.831Z,16.92
2022-08-12T02:34:19.021Z,16.90
2022-08-12T02:36:48.847Z,16.89
2022-08-12T02:39:22.987Z,16.88
2022-08-12T02:41:54.321Z,16.87
2022-08-12T02:44:25.943Z,16.86
2022-08-12T02:46:58.842Z,16.86
2022-08-12T02:49:32.528Z,16.86
2022-08-12T02:52:01.066Z,16.86
2022-08-12T02:54:29.500Z,16.86
2022-08-12T02:56:59.580Z,16.87
2022-08-12T02:59:29.184Z,16.88
2022-08-12T03:02:03.020Z,16.88
2022-08-12T03:04:41.623Z,16.90
2022-08-12T03:07:17.850Z,16.92
2022-08-12T03:10:04.009Z,16.93
2022-08-12T03:12:42.825Z,16.94
2022-08-12T03:15:22.019Z,16.95
2022-08-12T03:18:25.850Z,16.96
2022-08-12T03:20:45.836Z,16.96
2022-08-12T03:23:17.523Z,16.96
2022-08-12T03:26:00.003Z,16.96
2022-08-12T03:28:48.113Z,16.96
2022-08-12T03:31:18.507Z,16.96
2022-08-12T03:34:01.754Z,16.96
2022-08-12T03:36:34.159Z,16.95
2022-08-12T03:39:36.453Z,16.93
2022-08-12T03:42:33.011Z,16.92
2022-08-12T03:45:51.446Z,16.92
2022-08-12T03:48:40.305Z,16.89
2022-08-12T03:51:29.250Z,16.88
2022-08-12T03:54:16.418Z,16.87
2022-08-12T03:57:03.510Z,16.86
2022-08-12T03:59:50.561Z,16.85
2022-08-12T04:02:18.985Z,16.84
2022-08-12T04:04:49.390Z,16.82
2022-08-12T04:07:18.201Z,16.82
2022-08-12T04:09:47.241Z,16.82
2022-08-12T04:12:34.153Z,16.82
2022-08-12T04:15:03.412Z,16.84
2022-08-12T04:17:33.112Z,16.89
2022-08-12T04:20:01.655Z,16.95
2022-08-12T04:22:31.099Z,17.01
2022-08-12T04:25:01.313Z,17.06
2022-08-12T04:27:30.962Z,17.14
2022-08-12T04:30:29.920Z,17.20
2022-08-12T04:32:50.449Z,17.28
2022-08-12T04:35:19.375Z,17.36
2022-08-12T04:37:58.138Z,17.44
2022-08-12T04:40:32.470Z,17.50
2022-08-12T04:43:01.695Z,17.56
2022-08-12T04:45:31.789Z,17.62
2022-08-12T04:48:01.721Z,17.66
2022-08-12T04:50:36.048Z,17.70
2022-08-12T04:53:06.786Z,17.76
2022-08-12T04:55:39.068Z,17.81
2022-08-12T04:58:11.615Z,17.84
2022-08-12T05:00:40.256Z,17.88
2022-08-12T05:03:09.154Z,17.92
2022-08-12T05:05:39.608Z,17.96
2022-08-12T05:08:12.368Z,17.99
2022-08-12T05:10:40.916Z,18.02
2022-08-12T05:13:13.689Z,18.06
2022-08-12T05:16:04.640Z,18.11
2022-08-12T05:18:33.220Z,18.14
2022-08-12T05:21:04.229Z,18.19
2022-08-12T05:23:33.378Z,18.23
2022-08-12T05:26:01.802Z,18.27
2022-08-12T05:28:30.655Z,18.31
2022-08-12T05:31:01.179Z,18.37
2022-08-12T05:33:36.927Z,18.43
2022-08-12T05:36:07.317Z,18.50
2022-08-12T05:38:54.570Z,18.58
2022-08-12T05:41:24.446Z,18.68
2022-08-12T05:43:54.549Z,18.74
2022-08-12T05:46:24.159Z,18.80
2022-08-12T05:48:54.133Z,18.88
2022-08-12T05:51:24.255Z,18.96
2022-08-12T05:53:58.153Z,19.03
2022-08-12T06:00:03.674Z,19.38
2022-08-12T06:02:41.270Z,19.54
2022-08-12T06:05:10.363Z,19.64
2022-08-12T06:08:49.005Z,19.74
2022-08-12T06:17:04.826Z,19.92
2022-08-12T06:20:27.330Z,20.02
2022-08-12T06:22:23.230Z,20.14
2022-08-12T06:24:52.761Z,20.25
2022-08-12T06:27:36.205Z,20.35
2022-08-12T06:30:42.010Z,20.42
2022-08-12T06:33:59.464Z,20.59
2022-08-12T06:36:49.403Z,20.65
2022-08-12T06:39:26.537Z,20.70
2022-08-12T06:42:32.551Z,20.75
2022-08-12T06:45:07.325Z,20.88
2022-08-12T06:47:40.753Z,21.03
2022-08-12T06:50:15.904Z,21.22
2022-08-12T06:52:50.938Z,21.38
2022-08-12T06:55:25.519Z,21.53
2022-08-12T06:58:10.230Z,21.68
2022-08-12T07:00:46.399Z,21.84
2022-08-12T07:03:27.968Z,21.94
2022-08-12T07:06:02.132Z,21.99
2022-08-12T07:08:35.878Z,22.04
2022-08-12T07:11:10.151Z,22.11
2022-08-12T07:14:02.587Z,22.20
2022-08-12T07:16:51.014Z,22.29
2022-08-12T07:19:23.338Z,22.37
2022-08-12T07:22:06.472Z,22.43
2022-08-12T07:24:38.373Z,22.50
2022-08-12T07:27:12.080Z,22.56
2022-08-12T07:29:57.913Z,22.62
2022-08-12T07:32:35.881Z,22.71
2022-08-12T07:35:09.446Z,22.79
2022-08-12T07:37:44.438Z,22.88
2022-08-12T07:40:18.856Z,23.01
2022-08-12T07:42:50.753Z,23.13
2022-08-12T07:45:22.866Z,23.24
2022-08-12T07:47:54.796Z,23.35
2022-08-12T07:50:27.210Z,23.46
2022-08-12T07:53:00.151Z,23.58
2022-08-12T07:55:31.988Z,23.71
2022-08-12T07:58:04.619Z,23.80
2022-08-12T08:00:40.499Z,23.91
2022-08-12T08:03:17.388Z,24.00
2022-08-12T08:05:51.956Z,24.12
2022-08-12T08:08:26.466Z,24.23
2022-08-12T08:11:15.306Z,24.33
2022-08-12T08:13:49.405Z,24.41
2022-08-12T08:16:21.307Z,24.49
2022-08-12T08:18:55.966Z,24.57
2022-08-12T08:21:35.490Z,24.65
2022-08-12T08:24:17.414Z,24.73
2022-08-12T08:26:50.307Z,24.80
2022-08-12T08:29:23.957Z,24.83
2022-08-12T08:32:00.163Z,24.85
2022-08-12T08:37:27.733Z,24.85
2022-08-12T08:40:20.400Z,24.88
2022-08-12T08:42:52.290Z,24.92
2022-08-12T08:45:24.149Z,24.92
2022-08-12T08:47:59.694Z,24.97
2022-08-12T08:50:33.653Z,25.04
2022-08-12T08:53:08.828Z,25.10
2022-08-12T08:56:04.175Z,25.16
2022-08-12T08:58:34.584Z,25.20
2022-08-12T09:01:06.449Z,25.23
2022-08-12T09:05:11.974Z,25.23
2022-08-12T09:06:37.023Z,25.27
2022-08-12T09:09:13.334Z,25.24
2022-08-12T09:12:10.789Z,25.23
2022-08-12T09:14:47.032Z,25.25
2022-08-12T09:17:24.207Z,25.27
2022-08-12T09:19:58.355Z,25.30
2022-08-12T09:22:30.804Z,25.33
2022-08-12T09:25:08.298Z,25.39
2022-08-12T09:28:04.134Z,25.47
2022-08-12T09:30:41.667Z,25.54
2022-08-12T09:34:24.698Z,25.57
2022-08-12T09:36:07.361Z,25.63
2022-08-12T09:38:58.746Z,25.65
2022-08-12T09:42:33.816Z,25.72
2022-08-12T09:45:17.852Z,25.78
2022-08-12T09:47:45.590Z,25.86
2022-08-12T09:50:31.696Z,25.91
2022-08-12T09:53:14.926Z,25.96
2022-08-12T09:56:05.597Z,26.02
2022-08-12T09:58:57.729Z,26.10
2022-08-12T10:01:35.042Z,26.19
2022-08-12T10:04:23.342Z,26.20
2022-08-12T10:06:57.595Z,26.20
2022-08-12T10:09:58.323Z,26.21
2022-08-12T10:12:39.397Z,26.24
2022-08-12T10:15:15.476Z,26.30
2022-08-12T10:18:06.829Z,26.41
2022-08-12T10:20:39.987Z,26.49
2022-08-12T10:23:12.656Z,26.52
2022-08-12T10:26:35.171Z,26.53
2022-08-12T10:29:15.722Z,26.52
2022-08-12T10:32:20.913Z,26.50
2022-08-12T10:34:57.418Z,26.49
2022-08-12T10:38:34.638Z,26.49
2022-08-12T10:40:25.396Z,26.45
2022-08-12T10:43:18.890Z,26.40
2022-08-12T10:45:54.243Z,26.37
2022-08-12T10:48:34.297Z,26.37
2022-08-12T10:52:03.691Z,26.44
2022-08-12T10:54:00.921Z,26.53
2022-08-12T10:56:37.017Z,26.67
2022-08-12T10:59:10.966Z,26.82
2022-08-12T11:04:17.246Z,26.97
2022-08-12T11:04:45.573Z,27.12
2022-08-12T11:08:34.387Z,27.28
2022-08-12T11:10:14.282Z,27.42
2022-08-12T11:12:59.099Z,27.52
2022-08-12T11:16:02.605Z,27.64
2022-08-12T11:18:25.017Z,27.72
2022-08-12T11:20:58.214Z,27.81
2022-08-12T11:23:37.380Z,27.88
2022-08-12T11:26:10.036Z,27.94
2022-08-12T11:28:41.906Z,28.00
2022-08-12T11:31:14.630Z,28.02
2022-08-12T11:34:06.569Z,28.04
2022-08-12T11:36:53.498Z,28.01
2022-08-12T11:39:28.493Z,27.93
2022-08-12T11:42:17.846Z,27.88
2022-08-12T11:45:04.151Z,27.85
2022-08-12T11:47:40.390Z,27.87
2022-08-12T11:50:18.897Z,27.89
2022-08-12T11:52:56.583Z,27.95
2022-08-12T11:55:29.800Z,28.02
2022-08-12T11:58:32.237Z,28.06
2022-08-12T12:03:46.655Z,28.09
2022-08-12T12:06:21.067Z,28.08
2022-08-12T12:08:54.897Z,28.10
2022-08-12T12:11:27.045Z,28.12
2022-08-12T12:14:18.869Z,28.15
2022-08-12T12:17:09.850Z,28.19
2022-08-12T12:19:46.147Z,28.25
2022-08-12T12:22:23.415Z,28.26
2022-08-12T12:25:12.706Z,28.24
2022-08-12T12:28:06.071Z,28.23
2022-08-12T12:30:39.058Z,28.27
2022-08-12T12:33:26.526Z,28.29
2022-08-12T12:36:23.139Z,28.30
2022-08-12T12:38:57.106Z,28.32
2022-08-12T12:42:42.586Z,28.34
2022-08-12T12:44:25.740Z,28.30
2022-08-12T12:47:30.115Z,28.30
2022-08-12T12:50:02.210Z,28.26
2022-08-12T12:52:38.446Z,28.22
2022-08-12T12:55:16.375Z,28.17
2022-08-12T12:57:59.150Z,28.12
2022-08-12T13:00:33.285Z,28.17
2022-08-12T13:03:05.134Z,28.21
2022-08-12T13:05:42.357Z,28.18
2022-08-12T13:08:28.589Z,28.09
2022-08-12T13:11:09.222Z,28.02
2022-08-12T13:14:10.173Z,28.02
2022-08-12T13:16:34.980Z,28.02
2022-08-12T13:19:07.839Z,27.99
2022-08-12T13:22:00.351Z,28.00
2022-08-12T13:24:32.461Z,28.03
2022-08-12T13:27:04.666Z,28.05
2022-08-12T13:29:39.182Z,28.09
2022-08-12T13:32:18.999Z,28.12
2022-08-12T13:35:19.241Z,28.17
2022-08-12T13:37:55.781Z,28.22
2022-08-12T13:40:30.226Z,28.22
2022-08-12T13:43:07.047Z,28.22
2022-08-12T13:45:40.324Z,28.22
2022-08-12T13:48:12.220Z,28.20
2022-08-12T13:50:44.453Z,28.21
2022-08-12T13:53:26.086Z,28.19
2022-08-12T13:56:16.186Z,28.11
2022-08-12T13:58:52.702Z,28.05
2022-08-12T14:01:24.754Z,28.00
2022-08-12T14:03:56.845Z,27.96
2022-08-12T14:06:30.373Z,27.90
2022-08-12T14:09:15.429Z,27.82
2022-08-12T14:11:58.802Z,27.74
2022-08-12T14:14:35.707Z,27.67
2022-08-12T14:17:10.724Z,27.65
2022-08-12T14:20:05.961Z,27.66
2022-08-12T14:22:51.413Z,27.63
2022-08-12T14:25:24.735Z,27.64
2022-08-12T14:28:03.359Z,27.66
2022-08-12T14:30:38.608Z,27.68
2022-08-12T14:33:44.265Z,27.70
2022-08-12T14:36:20.621Z,27.72
2022-08-12T14:38:56.028Z,27.73
2022-08-12T14:41:37.244Z,27.77
2022-08-12T14:44:57.505Z,27.79
2022-08-12T14:47:14.266Z,27.84
2022-08-12T14:50:41.321Z,27.87
2022-08-12T14:58:37.520Z,27.83
2022-08-12T15:01:42.849Z,27.76
2022-08-12T15:04:15.829Z,27.74
2022-08-12T15:06:52.342Z,27.77
2022-08-12T15:09:28.826Z,27.82
2022-08-12T15:12:03.268Z,27.86
2022-08-12T15:14:37.968Z,27.90
2022-08-12T15:17:10.049Z,27.96
2022-08-12T15:20:11.885Z,28.02
2022-08-12T15:22:53.424Z,28.07
2022-08-12T15:25:26.259Z,28.13
2022-08-12T15:28:04.416Z,28.12
2022-08-12T15:30:53.350Z,28.12
2022-08-12T15:33:26.736Z,28.07
2022-08-12T15:36:36.552Z,27.95
2022-08-12T15:39:17.687Z,27.86
2022-08-12T15:41:50.904Z,27.79
2022-08-12T15:44:37.941Z,27.76
2022-08-12T15:47:16.318Z,27.72
2022-08-12T15:49:59.781Z,27.67
2022-08-12T15:52:37.655Z,27.67
2022-08-12T15:55:16.744Z,27.67
2022-08-12T15:57:54.191Z,27.64
2022-08-12T16:00:32.818Z,27.66
2022-08-12T16:03:14.371Z,27.64
2022-08-12T16:06:11.882Z,27.62
2022-08-12T16:08:47.718Z,27.63
2022-08-12T16:11:22.047Z,27.63
2022-08-12T16:13:53.847Z,27.66
2022-08-12T16:16:25.697Z,27.71
2022-08-12T16:19:04.535Z,27.77
2022-08-12T16:21:58.415Z,27.79
2022-08-12T16:24:34.993Z,27.84
2022-08-12T16:27:10.995Z,27.87
2022-08-12T16:29:53.530Z,27.89
2022-08-12T16:32:31.172Z,27.89
2022-08-12T16:35:06.377Z,27.84
2022-08-12T16:38:24.457Z,27.74
2022-08-12T16:40:33.800Z,27.67
2022-08-12T16:43:21.402Z,27.61
2022-08-12T16:46:07.691Z,27.55
2022-08-12T16:48:50.445Z,27.49
2022-08-12T16:51:26.644Z,27.44
2022-08-12T16:54:02.861Z,27.41
2022-08-12T16:56:38.020Z,27.35
2022-08-12T16:59:16.037Z,27.37
2022-08-12T17:01:49.727Z,27.39
2022-08-12T17:04:24.385Z,27.38
2022-08-12T17:06:56.725Z,27.36
2022-08-12T17:09:39.761Z,27.33
2022-08-12T17:12:12.684Z,27.30
2022-08-12T17:14:47.240Z,27.24
2022-08-12T17:17:38.882Z,27.17
2022-08-12T17:20:34.109Z,27.13
2022-08-12T17:23:13.695Z,27.07
2022-08-12T17:25:50.364Z,27.04
2022-08-12T17:28:23.388Z,26.99
2022-08-12T17:31:00.315Z,26.90
2022-08-12T17:33:35.882Z,26.85
2022-08-12T17:36:11.518Z,26.76
2022-08-12T17:38:44.408Z,26.70
2022-08-12T17:41:56.044Z,26.63
2022-08-12T17:44:15.425Z,26.56
2022-08-12T17:46:53.766Z,26.54
2022-08-12T17:50:02.333Z,26.50
2022-08-12T17:52:20.911Z,26.45
2022-08-12T17:54:58.653Z,26.42
2022-08-12T17:57:31.622Z,26.37
2022-08-12T18:00:12.833Z,26.32
2022-08-12T18:02:46.766Z,26.28
2022-08-12T18:05:23.104Z,26.24
2022-08-12T18:07:57.873Z,26.21
2022-08-12T18:10:53.103Z,26.18
2022-08-12T18:13:34.648Z,26.16
2022-08-12T18:16:16.230Z,26.14
2022-08-12T18:18:59.694Z,26.11
2022-08-12T18:22:01.864Z,26.08
2022-08-12T18:24:29.521Z,26.05
2022-08-12T18:27:30.090Z,26.01
2022-08-12T18:29:55.472Z,25.95
2022-08-12T18:32:53.796Z,25.91
2022-08-12T18:35:20.409Z,25.86
2022-08-12T18:38:03.703Z,25.82
2022-08-12T18:40:55.294Z,25.78
2022-08-12T18:43:37.003Z,25.76
2022-08-12T18:46:34.404Z,25.76
2022-08-12T18:49:18.709Z,25.74
2022-08-12T18:52:02.520Z,25.72
2022-08-12T18:54:54.112Z,25.68
2022-08-12T18:58:07.203Z,25.65
2022-08-12T19:00:25.143Z,25.60
2022-08-12T19:02:58.953Z,25.57
2022-08-12T19:05:54.267Z,25.54
2022-08-12T19:08:31.376Z,25.49
2022-08-12T19:11:17.542Z,25.45
2022-08-12T19:14:08.381Z,25.42
2022-08-12T19:16:44.102Z,25.38
2022-08-12T19:19:24.616Z,25.34
2022-08-12T19:21:58.103Z,25.30
2022-08-12T19:24:51.806Z,25.27
2022-08-12T19:27:24.830Z,25.25
2022-08-12T19:30:09.288Z,25.22
2022-08-12T19:32:48.752Z,25.19
2022-08-12T19:36:06.432Z,25.17
2022-08-12T19:38:20.832Z,25.15
2022-08-12T19:40:53.752Z,25.12
2022-08-12T19:43:27.265Z,25.10
2022-08-12T19:46:27.724Z,25.06
2022-08-12T19:49:07.004Z,25.02
2022-08-12T19:51:42.567Z,24.96
2022-08-12T19:54:23.071Z,24.92
2022-08-12T19:57:04.581Z,24.87
2022-08-12T19:59:43.490Z,24.83
2022-08-12T20:02:32.898Z,24.77
2022-08-12T20:06:03.679Z,24.72
2022-08-12T20:07:59.669Z,24.68
2022-08-12T20:10:36.275Z,24.63
2022-08-12T20:13:18.798Z,24.58
2022-08-12T20:15:59.960Z,24.56
2022-08-12T20:18:53.243Z,24.54
2022-08-12T20:21:25.513Z,24.50
2022-08-12T20:24:14.628Z,24.45
2022-08-12T20:26:46.794Z,24.41
2022-08-12T20:29:24.350Z,24.39
2022-08-12T20:32:10.402Z,24.35
2022-08-12T20:34:48.271Z,24.33
2022-08-12T20:38:07.046Z,24.29
2022-08-12T20:40:19.356Z,24.26
2022-08-12T20:42:55.821Z,24.24
2022-08-12T20:45:32.919Z,24.21
2022-08-12T20:48:17.103Z,24.18
2022-08-12T20:50:53.718Z,24.15
2022-08-12T20:53:54.048Z,24.13
2022-08-12T20:56:31.040Z,24.10
2022-08-12T20:59:06.688Z,24.08
2022-08-12T21:01:46.452Z,24.04
2022-08-12T21:04:38.611Z,24.02
2022-08-12T21:07:11.444Z,23.98
2022-08-12T21:09:49.212Z,23.97
2022-08-12T21:12:27.700Z,23.95
2022-08-12T21:15:23.540Z,23.93
2022-08-12T21:18:11.397Z,23.90
2022-08-12T21:20:57.372Z,23.88
2022-08-12T21:23:37.109Z,23.85
2022-08-12T21:26:16.444Z,23.82
2022-08-12T21:28:58.253Z,23.79
2022-08-12T21:32:47.061Z,23.75
2022-08-12T21:34:31.193Z,23.71
2022-08-12T21:37:13.195Z,23.65
2022-08-12T21:39:57.263Z,23.63
2022-08-12T21:42:42.091Z,23.60
2022-08-12T21:45:48.403Z,23.59
2022-08-12T21:48:11.778Z,23.55
2022-08-12T21:50:44.497Z,23.51
2022-08-12T21:53:19.325Z,23.48
2022-08-12T21:55:57.957Z,23.45
2022-08-12T21:58:29.843Z,23.43
2022-08-12T22:01:01.968Z,23.41
2022-08-12T22:04:03.844Z,23.38
2022-08-12T22:06:44.597Z,23.35
2022-08-12T22:09:18.609Z,23.32
2022-08-12T22:11:59.496Z,23.30
2022-08-12T22:14:31.763Z,23.28
2022-08-12T22:17:05.160Z,23.25
2022-08-12T22:19:40.673Z,23.24
2022-08-12T22:22:14.606Z,23.22
2022-08-12T22:24:48.365Z,23.19
2022-08-12T22:27:32.434Z,23.17
2022-08-12T22:30:23.425Z,23.15
2022-08-12T22:32:57.925Z,23.13
2022-08-12T22:35:55.679Z,23.11
2022-08-12T22:38:35.953Z,23.09
2022-08-12T22:41:33.057Z,23.06
2022-08-12T22:44:23.953Z,23.04
2022-08-12T22:47:15.153Z,23.02
2022-08-12T22:50:09.477Z,23.00
2022-08-12T22:53:15.729Z,22.97
2022-08-12T22:56:00.258Z,22.95
2022-08-12T22:58:41.256Z,22.93
2022-08-12T23:01:21.461Z,22.92
2022-08-12T23:04:15.399Z,22.90
2022-08-12T23:07:05.457Z,22.87
2022-08-12T23:09:47.978Z,22.85
2022-08-12T23:12:34.417Z,22.82
2022-08-12T23:15:11.526Z,22.77
2022-08-12T23:17:46.003Z,22.74
2022-08-12T23:20:22.725Z,22.71
2022-08-12T23:23:03.018Z,22.68
2022-08-12T23:25:55.613Z,22.67
2022-08-12T23:28:52.590Z,22.65
2022-08-12T23:32:03.640Z,22.63
2022-08-12T23:34:31.937Z,22.62
2022-08-12T23:37:05.467Z,22.61
2022-08-12T23:40:14.053Z,22.59
2022-08-12T23:42:30.755Z,22.58
2022-08-12T23:45:19.097Z,22.56
2022-08-12T23:47:58.434Z,22.55
2022-08-12T23:50:33.386Z,22.54
2022-08-12T23:53:22.390Z,22.50
2022-08-12T23:55:57.158Z,22.48
2022-08-12T23:58:31.126Z,22.46
